MMTP/TAP METAR and TAF weather

Enter ICAO airport designator
Station Type Date Time Source
MMTP METAR 2019/04/20 17:40 UTC NOAA

MMTP 201740Z 23008KT 8SM SCT030 SCT100 33/23 A2992 RMK SLP154 57009 938 8/110 HZY


Station Type Date Time Source
MMTP Decoded METAR 2019/04/20 17:40 UTC NOAA

Tapachula , Mexico (MMTP) 14-47N 092-23W
Apr 20, 2019 - 01:40 PM EDT / 2019.04.20 1740 UTC
Wind: from the SW (230 degrees) at 9 MPH (8 KT):0
Visibility: 8 mile(s):0
Sky conditions: partly cloudy
Temperature: 91 F (33 C)
Heat index: 99.1 F (37.3 C):1
Dew Point: 73 F (23 C)
Relative Humidity: 55%
Pressure (altimeter): 29.92 in. Hg (1013 hPa)
Pressure tendency: 0.03 inches (0.9 hPa) lower than three hours ago
ob: MMTP 201740Z 23008KT 8SM SCT030 SCT100 33/23 A2992 RMK SLP154 57009 938 8/110 HZY
cycle: 17

Station Type Date Time Source
MMTP TAF 2019/04/20 18:47 UTC NOAA

TAF MMTP 201640Z 2018/2124 24015KT P6SM SCT030
TEMPO 2021/2101 BKN030
BECMG 2102/2103 00000KT
FM211600 30010KT P6SM SCT040

Example: see airport list